Time;durP1;ratioP1;P1;durP2;ratioP2;P2;SDS_P1;SDS_P2;PMS_P1;PMS_P2;Temp;Humidity;BMP_temperature;BMP_pressure;BME280_temperature;BME280_humidity;BME280_pressure;Samples;Min_cycle;Max_cycle;Signal;HPM_P1;HPM_P2
2023/04/27 00:00:36;;;;;;;3.33;3.23;;;;;;;13.01;63.30;98978.38;5055183;28;20733;-65
2023/04/27 00:03:05;;;;;;;3.17;3.07;;;;;;;13.13;63.22;98982.75;5054266;28;20188;-65
2023/04/27 00:05:34;;;;;;;4.70;2.97;;;;;;;13.09;63.58;98978.91;5055308;28;20220;-65
2023/04/27 00:08:02;;;;;;;3.33;3.03;;;;;;;12.97;63.35;98983.34;5054995;28;20283;-65
2023/04/27 00:10:29;;;;;;;3.57;3.23;;;;;;;13.03;63.43;98990.44;5055390;28;20250;-65
2023/04/27 00:12:56;;;;;;;3.93;3.33;;;;;;;13.03;63.58;98993.09;5054932;28;20254;-65
2023/04/27 00:15:22;;;;;;;5.93;4.37;;;;;;;13.02;63.44;99002.16;5054928;28;20596;-66
2023/04/27 00:17:49;;;;;;;3.73;3.37;;;;;;;12.88;63.57;99000.66;5055140;28;20601;-65
2023/04/27 00:20:16;;;;;;;4.97;3.20;;;;;;;12.97;63.68;98998.50;5054760;28;20620;-65
2023/04/27 00:22:43;;;;;;;3.57;3.37;;;;;;;12.91;63.36;99004.72;5054365;28;20253;-65
2023/04/27 00:25:11;;;;;;;5.17;3.60;;;;;;;13.08;63.09;99003.94;5056150;28;20641;-66
2023/04/27 00:27:37;;;;;;;3.87;3.50;;;;;;;13.16;63.17;99003.63;5075193;28;20200;-65
2023/04/27 00:30:05;;;;;;;4.70;3.57;;;;;;;13.02;63.70;99004.81;5074490;28;20235;-66
2023/04/27 00:32:32;;;;;;;4.17;3.77;;;;;;;12.89;63.70;99018.28;5074298;28;20195;-65
2023/04/27 00:34:59;;;;;;;3.63;3.43;;;;;;;13.06;63.99;99008.66;5074446;28;20196;-66
2023/04/27 00:37:26;;;;;;;3.47;3.17;;;;;;;12.99;63.74;99017.78;5074469;28;20274;-66
2023/04/27 00:39:52;;;;;;;3.47;3.27;;;;;;;13.02;64.01;99018.16;5074746;28;20195;-65
2023/04/27 00:42:20;;;;;;;5.40;3.50;;;;;;;13.02;63.18;99028.81;5072333;28;20192;-70
2023/04/27 00:44:47;;;;;;;4.50;3.50;;;;;;;13.15;63.85;99023.31;5072909;28;20205;-65
2023/04/27 00:47:16;;;;;;;4.00;3.60;;;;;;;12.99;63.89;99034.56;5063922;28;20246;-65
2023/04/27 00:49:42;;;;;;;4.50;3.57;;;;;;;13.13;64.77;99035.25;5063297;28;20192;-65
2023/04/27 00:52:09;;;;;;;6.43;4.13;;;;;;;13.02;64.79;99028.81;5074516;28;20195;-65
2023/04/27 00:54:36;;;;;;;3.53;3.30;;;;;;;12.83;64.32;99035.13;5074730;28;20187;-65
2023/04/27 00:57:04;;;;;;;3.93;3.63;;;;;;;12.78;65.31;99032.31;5074208;28;20223;-67
2023/04/27 00:59:32;;;;;;;5.00;3.53;;;;;;;12.86;65.86;99029.38;5069035;28;20188;-67
2023/04/27 01:01:59;;;;;;;5.17;3.50;;;;;;;12.89;65.42;99031.59;5054341;28;20245;-65
2023/04/27 01:04:27;;;;;;;4.83;4.33;;;;;;;12.85;66.46;99032.25;5053838;28;20246;-65
2023/04/27 01:06:54;;;;;;;5.73;3.90;;;;;;;12.63;67.01;99028.41;5053906;28;20220;-65
2023/04/27 01:09:21;;;;;;;3.90;3.60;;;;;;;12.74;66.24;99028.47;5053863;28;20246;-65
2023/04/27 01:11:47;;;;;;;4.10;3.60;;;;;;;12.57;66.07;99022.09;5053911;28;20734;-65
2023/04/27 01:14:16;;;;;;;4.30;3.93;;;;;;;12.66;66.52;99035.94;5053798;28;20682;-65
2023/04/27 01:16:45;;;;;;;4.53;3.50;;;;;;;12.72;66.50;99038.53;5054086;28;20204;-65
2023/04/27 01:19:12;;;;;;;5.17;3.40;;;;;;;12.66;66.07;99052.72;5052976;28;20227;-65
2023/04/27 01:21:38;;;;;;;3.93;3.50;;;;;;;12.56;64.63;99057.75;5054003;28;20199;-65
2023/04/27 01:24:08;;;;;;;3.73;3.50;;;;;;;12.68;64.96;99058.69;5053543;28;20228;-65
2023/04/27 01:26:35;;;;;;;4.33;3.67;;;;;;;12.68;62.85;99061.34;5053807;28;20281;-65
2023/04/27 01:29:02;;;;;;;5.27;3.30;;;;;;;12.78;63.52;99061.63;5053801;28;20289;-66
2023/04/27 01:31:28;;;;;;;3.53;3.23;;;;;;;12.82;61.51;99070.81;5053746;28;20197;-66
2023/04/27 01:33:55;;;;;;;4.03;3.00;;;;;;;12.90;61.22;99072.41;5053414;28;20204;-65
2023/04/27 01:36:22;;;;;;;5.53;3.50;;;;;;;12.86;60.53;99081.88;5053748;28;20195;-65
2023/04/27 01:38:48;;;;;;;3.20;2.70;;;;;;;12.91;63.73;99069.50;5052400;28;20197;-65
2023/04/27 01:41:16;;;;;;;5.20;3.20;;;;;;;12.84;62.14;99079.44;5053369;28;20617;-65
2023/04/27 01:43:43;;;;;;;3.77;2.83;;;;;;;13.05;59.97;99092.38;5053774;28;20254;-64
2023/04/27 01:46:11;;;;;;;4.73;3.83;;;;;;;12.95;59.02;99091.22;5053038;28;20220;-64
2023/04/27 01:48:39;;;;;;;3.67;3.40;;;;;;;12.89;59.24;99082.25;5053268;28;20196;-65
2023/04/27 01:51:06;;;;;;;5.47;3.07;;;;;;;12.75;59.52;99091.41;5053460;28;20199;-65
2023/04/27 01:53:33;;;;;;;3.93;3.10;;;;;;;12.71;59.58;99095.56;5053319;28;20198;-65
2023/04/27 01:56:00;;;;;;;3.60;3.30;;;;;;;12.71;59.75;99094.72;5053336;28;20246;-65
2023/04/27 01:58:28;;;;;;;5.03;3.73;;;;;;;12.73;59.60;99101.47;5052322;28;20185;-65
2023/04/27 02:00:55;;;;;;;6.47;3.60;;;;;;;12.79;59.79;99100.59;5052977;28;20226;-64
2023/04/27 02:03:21;;;;;;;5.10;3.17;;;;;;;12.73;59.14;99104.13;5053021;28;20195;-66
2023/04/27 02:05:48;;;;;;;4.10;3.13;;;;;;;12.76;58.94;99109.03;5053218;28;20223;-65
2023/04/27 02:08:15;;;;;;;3.43;3.13;;;;;;;12.70;58.90;99114.41;5052709;28;20197;-65
2023/04/27 02:10:42;;;;;;;3.37;3.10;;;;;;;12.76;59.74;99111.69;5053242;28;20224;-65
2023/04/27 02:13:09;;;;;;;7.83;3.43;;;;;;;12.65;59.77;99104.41;5052607;28;20750;-65
2023/04/27 02:15:37;;;;;;;3.27;2.80;;;;;;;12.62;59.69;99110.16;5052343;28;20221;-65
2023/04/27 02:18:04;;;;;;;3.63;3.23;;;;;;;12.80;59.27;99112.88;5052471;28;20282;-66
2023/04/27 02:20:31;;;;;;;7.43;3.23;;;;;;;12.80;59.15;99115.56;5052582;28;20573;-65
2023/04/27 02:22:58;;;;;;;4.67;2.97;;;;;;;12.87;59.29;99116.28;5052785;28;20197;-66
2023/04/27 02:25:25;;;;;;;3.87;2.97;;;;;;;12.88;58.49;99120.59;5052634;28;20196;-66
2023/04/27 02:27:52;;;;;;;6.57;3.30;;;;;;;12.66;58.53;99116.69;5052425;28;20727;-66
2023/04/27 02:30:20;;;;;;;3.63;2.90;;;;;;;12.81;58.62;99125.16;5052311;28;20189;-66
2023/04/27 02:32:48;;;;;;;8.17;3.10;;;;;;;12.84;57.82;99127.41;5051373;28;20193;-67
2023/04/27 02:35:16;;;;;;;6.53;3.27;;;;;;;12.87;58.13;99126.94;5052224;28;20668;-65
2023/04/27 02:37:42;;;;;;;6.20;3.20;;;;;;;12.62;58.72;99123.47;5052619;28;20207;-65
2023/04/27 02:40:10;;;;;;;5.57;3.77;;;;;;;12.73;58.72;99125.44;5052064;28;20204;-65
2023/04/27 02:42:37;;;;;;;6.33;3.57;;;;;;;12.80;58.58;99120.88;5052755;28;20232;-65
2023/04/27 02:45:05;;;;;;;6.10;3.10;;;;;;;12.75;58.29;99134.06;5052062;28;20191;-65
2023/04/27 02:47:32;;;;;;;5.67;3.27;;;;;;;12.69;57.96;99132.25;5052269;28;20274;-65
2023/04/27 02:50:00;;;;;;;4.17;3.30;;;;;;;12.69;58.11;99134.91;5052370;28;20200;-65
2023/04/27 02:52:27;;;;;;;6.60;3.10;;;;;;;12.70;58.07;99139.19;5051984;28;20191;-65
2023/04/27 02:54:54;;;;;;;3.57;3.23;;;;;;;12.60;58.16;99138.88;5051086;28;20193;-65
2023/04/27 02:57:20;;;;;;;5.30;3.00;;;;;;;12.66;58.65;99142.53;5052168;28;20334;-66
2023/04/27 02:59:47;;;;;;;4.37;3.00;;;;;;;12.60;58.00;99138.88;5051896;28;20758;-65
2023/04/27 03:02:14;;;;;;;3.47;3.07;;;;;;;12.62;58.03;99144.00;5052184;28;20198;-65
2023/04/27 03:04:42;;;;;;;7.77;4.03;;;;;;;12.67;57.74;99145.00;5052140;28;20200;-65
2023/04/27 03:07:10;;;;;;;6.90;3.20;;;;;;;12.73;56.94;99152.09;5051990;28;20289;-65
2023/04/27 03:09:37;;;;;;;3.43;2.73;;;;;;;12.79;56.64;99145.91;5051748;28;20246;-64
2023/04/27 03:12:05;;;;;;;6.03;2.80;;;;;;;12.83;56.60;99151.63;5052055;28;20200;-65
2023/04/27 03:14:31;;;;;;;4.47;3.47;;;;;;;12.87;56.78;99158.13;5051311;28;20238;-65
2023/04/27 03:16:58;;;;;;;5.00;3.70;;;;;;;12.86;55.91;99146.66;5057949;28;20249;-66
2023/04/27 03:19:25;;;;;;;4.90;2.90;;;;;;;12.84;55.95;99156.72;5071969;28;20276;-65
2023/04/27 03:21:51;;;;;;;7.47;3.40;;;;;;;12.82;55.57;99166.78;5068872;28;20192;-65
2023/04/27 03:24:20;;;;;;;6.27;3.07;;;;;;;12.75;56.01;99160.72;5051565;28;20192;-67
2023/04/27 03:26:47;;;;;;;3.77;3.47;;;;;;;12.82;56.04;99165.97;5051541;28;20703;-65
2023/04/27 03:29:14;;;;;;;4.60;2.87;;;;;;;12.89;55.97;99167.53;5052032;28;20222;-65
2023/04/27 03:31:40;;;;;;;9.27;3.53;;;;;;;12.83;55.65;99168.41;5051515;28;20663;-63
2023/04/27 03:34:07;;;;;;;3.80;2.63;;;;;;;12.82;55.66;99165.97;5055228;28;20564;-64
2023/04/27 03:36:34;;;;;;;5.77;3.20;;;;;;;12.83;57.86;99162.28;5071895;28;20222;-64
2023/04/27 03:39:00;;;;;;;4.23;3.27;;;;;;;13.09;54.94;99173.53;5071689;28;20249;-64
2023/04/27 03:41:28;;;;;;;8.70;2.90;;;;;;;13.03;55.34;99174.41;5070984;28;20192;-66
2023/04/27 03:43:55;;;;;;;9.57;4.00;;;;;;;13.38;54.63;99174.69;5066373;28;20206;-66
2023/04/27 03:46:22;;;;;;;3.90;2.97;;;;;;;13.10;54.14;99180.50;5051552;28;20696;-64
2023/04/27 03:48:48;;;;;;;5.80;3.30;;;;;;;13.14;56.34;99179.03;5051473;28;20559;-64
2023/04/27 03:51:15;;;;;;;8.00;3.73;;;;;;;13.15;53.96;99187.84;5051260;28;20726;-64
2023/04/27 03:53:42;;;;;;;10.97;3.00;;;;;;;13.05;53.88;99193.69;5051178;28;20741;-63
2023/04/27 03:56:08;;;;;;;6.07;3.17;;;;;;;12.90;54.71;99189.69;5051516;28;20265;-64
2023/04/27 03:58:36;;;;;;;6.27;3.00;;;;;;;12.87;54.33;99190.91;5051224;28;20200;-64
2023/04/27 04:01:03;;;;;;;4.13;3.13;;;;;;;12.85;54.52;99193.00;5062459;28;20192;-64
2023/04/27 04:03:30;;;;;;;3.53;2.90;;;;;;;13.01;55.49;99192.50;5065529;28;20193;-64
2023/04/27 04:05:57;;;;;;;6.50;3.30;;;;;;;13.17;53.98;99207.94;5050869;28;20570;-66
2023/04/27 04:08:24;;;;;;;5.43;2.90;;;;;;;13.07;53.78;99206.81;5051444;28;20192;-65
2023/04/27 04:10:51;;;;;;;4.13;3.40;;;;;;;13.14;53.98;99208.38;5053551;28;20676;-64
2023/04/27 04:13:18;;;;;;;9.37;3.47;;;;;;;13.21;53.89;99209.13;5055268;28;20683;-68
2023/04/27 04:15:46;;;;;;;4.93;2.80;;;;;;;13.11;53.68;99214.13;5055165;28;20259;-64
2023/04/27 04:18:12;;;;;;;3.70;2.40;;;;;;;13.04;54.13;99213.38;5069092;28;20192;-64
2023/04/27 04:20:39;;;;;;;4.37;2.47;;;;;;;13.28;55.35;99215.19;5075014;28;20249;-64
2023/04/27 04:23:06;;;;;;;4.07;2.97;;;;;;;13.73;53.07;99224.56;5074957;28;20206;-65
2023/04/27 04:25:33;;;;;;;8.33;4.20;;;;;;;13.95;51.60;99228.44;5073643;28;20610;-65
2023/04/27 04:27:59;;;;;;;4.23;2.83;;;;;;;14.29;50.85;99235.81;5074752;28;20215;-64
2023/04/27 04:30:26;;;;;;;14.43;3.67;;;;;;;14.66;48.88;99244.59;5074847;28;20196;-65
2023/04/27 04:32:55;;;;;;;4.90;3.23;;;;;;;14.44;48.73;99246.94;5074809;28;20249;-64
2023/04/27 04:35:21;;;;;;;3.13;2.40;;;;;;;14.12;52.72;99239.31;5069900;28;20199;-64
2023/04/27 04:37:48;;;;;;;4.63;3.00;;;;;;;14.28;49.35;99242.22;5054752;28;20258;-64
2023/04/27 04:40:15;;;;;;;7.50;3.20;;;;;;;14.39;48.75;99236.13;5054251;28;20665;-65
2023/04/27 04:42:42;;;;;;;6.90;2.87;;;;;;;14.57;49.02;99244.06;5054328;28;20189;-65
2023/04/27 04:45:09;;;;;;;4.33;3.30;;;;;;;14.82;47.48;99251.91;5054122;28;20215;-66
2023/04/27 04:47:36;;;;;;;5.40;2.60;;;;;;;14.75;49.88;99245.88;5054484;28;20228;-65
2023/04/27 04:50:05;;;;;;;9.40;3.37;;;;;;;14.60;48.47;99246.31;5054372;28;20196;-66
2023/04/27 04:52:32;;;;;;;4.97;2.77;;;;;;;14.57;48.78;99253.94;5054027;28;20259;-66
2023/04/27 04:54:58;;;;;;;7.17;3.40;;;;;;;14.69;48.91;99246.78;5054429;28;20197;-67
2023/04/27 04:57:25;;;;;;;6.77;2.83;;;;;;;14.94;49.97;99256.28;5052542;28;20668;-71
2023/04/27 04:59:52;;;;;;;3.13;2.53;;;;;;;14.93;52.40;99254.66;5061477;28;20252;-65
2023/04/27 05:02:18;;;;;;;12.77;3.13;;;;;;;14.97;48.38;99271.88;5073772;28;20222;-65
2023/04/27 05:04:45;;;;;;;3.67;3.00;;;;;;;14.67;48.02;99267.59;5056990;28;20200;-65
2023/04/27 05:07:13;;;;;;;13.53;3.60;;;;;;;14.77;49.38;99260.66;5051961;28;20216;-65
2023/04/27 05:09:40;;;;;;;4.83;2.73;;;;;;;14.61;48.01;99277.34;5051316;28;20188;-66
2023/04/27 05:12:07;;;;;;;6.90;2.90;;;;;;;14.52;48.48;99277.88;5051473;28;20197;-65
2023/04/27 05:14:34;;;;;;;5.53;2.50;;;;;;;14.05;48.85;99271.44;5071881;28;20254;-64
2023/04/27 05:17:01;;;;;;;12.37;3.77;;;;;;;14.05;49.35;99274.13;5056640;28;20197;-65
2023/04/27 05:19:29;;;;;;;5.73;2.90;;;;;;;13.95;49.29;99281.84;5053586;28;20196;-65
2023/04/27 05:21:57;;;;;;;11.67;3.73;;;;;;;13.88;50.38;99275.75;5018096;28;20267;-66
2023/04/27 05:24:25;;;;;;;5.93;2.80;;;;;;;14.07;50.02;99280.06;5032745;28;20201;-65
2023/04/27 05:26:51;;;;;;;14.33;3.97;;;;;;;14.15;50.39;99274.41;5030641;28;20229;-66
2023/04/27 05:29:18;;;;;;;13.40;2.90;;;;;;;13.88;50.58;99281.09;5013589;28;20292;-65
2023/04/27 05:31:45;;;;;;;16.97;2.90;;;;;;;14.16;53.94;99272.53;5013604;28;20190;-67
2023/04/27 05:34:12;;;;;;;9.73;3.10;;;;;;;14.34;48.22;99286.72;5012907;28;20268;-65
2023/04/27 05:36:39;;;;;;;6.55;2.70;;;;;;;14.45;52.18;99285.16;5018813;28;20460;-67
2023/04/27 05:39:06;;;;;;;5.53;2.60;;;;;;;14.62;50.05;99286.97;5013396;28;20284;-65
2023/04/27 05:41:34;;;;;;;11.67;3.03;;;;;;;14.63;47.34;99296.63;5023691;28;20279;-63
2023/04/27 05:44:00;;;;;;;4.83;3.30;;;;;;;14.57;47.01;99296.72;5013112;28;20194;-65
2023/04/27 05:46:27;;;;;;;9.60;3.57;;;;;;;14.24;52.44;99283.78;5012226;28;20272;-66
2023/04/27 05:48:54;;;;;;;6.57;3.07;;;;;;;14.26;46.63;99300.41;5012676;28;20237;-64
2023/04/27 05:51:20;;;;;;;7.07;2.70;;;;;;;14.14;48.07;99288.78;5012498;28;20198;-65
2023/04/27 05:53:47;;;;;;;19.17;3.70;;;;;;;14.20;47.65;99295.94;5012160;28;20233;-65
2023/04/27 05:56:14;;;;;;;25.17;3.83;;;;;;;14.58;51.00;99307.19;5014332;28;20243;-68
2023/04/27 05:58:42;;;;;;;4.47;3.17;;;;;;;14.31;48.00;99313.09;5031329;28;20275;-67
2023/04/27 06:01:08;;;;;;;18.80;4.43;;;;;;;13.92;47.88;99314.31;5032191;28;20226;-67
2023/04/27 06:03:35;;;;;;;6.73;3.73;;;;;;;13.74;48.08;99317.00;5031388;28;20582;-64
2023/04/27 06:06:02;;;;;;;11.40;3.73;;;;;;;14.25;49.54;99314.78;5028217;28;20717;-64
2023/04/27 06:08:29;;;;;;;5.10;2.87;;;;;;;14.31;51.54;99305.91;5027699;28;20213;-64
2023/04/27 06:10:56;;;;;;;6.80;3.00;;;;;;;14.18;46.29;99329.25;5024273;28;20194;-73
2023/04/27 06:13:23;;;;;;;3.00;2.60;;;;;;;14.21;47.04;99318.94;5023956;28;20194;-69
2023/04/27 06:15:51;;;;;;;8.97;3.47;;;;;;;14.11;46.83;99318.66;5019858;28;20742;-67
2023/04/27 06:18:17;;;;;;;15.17;3.50;;;;;;;14.24;48.38;99309.69;5021974;28;20638;-68
2023/04/27 06:20:44;;;;;;;8.97;2.63;;;;;;;13.94;47.22;99325.63;5023166;28;20197;-66
2023/04/27 06:23:11;;;;;;;15.20;3.77;;;;;;;13.66;47.76;99322.59;5016099;28;20243;-66
2023/04/27 06:25:39;;;;;;;27.67;4.53;;;;;;;13.79;49.30;99316.31;5032028;28;20266;-67
2023/04/27 06:28:06;;;;;;;27.97;4.60;;;;;;;13.92;49.46;99316.16;5021720;28;20233;-66
2023/04/27 06:30:33;;;;;;;9.37;3.20;;;;;;;14.00;48.02;99311.38;5012244;28;20597;-67
2023/04/27 06:33:01;;;;;;;10.30;2.57;;;;;;;14.10;49.55;99317.00;5011186;28;20744;-67
2023/04/27 06:35:28;;;;;;;29.47;4.40;;;;;;;14.28;47.74;99321.53;5010789;28;20666;-69
2023/04/27 06:37:57;;;;;;;4.67;2.77;;;;;;;14.28;47.93;99322.38;5018530;28;20205;-68
2023/04/27 06:40:25;;;;;;;8.30;3.03;;;;;;;14.07;48.51;99325.47;5018152;28;20228;-67
2023/04/27 06:42:52;;;;;;;4.60;2.83;;;;;;;13.76;48.24;99309.56;5027186;28;20580;-65
2023/04/27 06:45:18;;;;;;;6.40;3.23;;;;;;;13.57;49.15;99323.94;5017264;28;20669;-68
2023/04/27 06:47:45;;;;;;;9.77;3.10;;;;;;;13.45;50.16;99307.00;5020755;28;20308;-65
2023/04/27 06:50:14;;;;;;;8.03;2.73;;;;;;;13.64;50.54;99322.00;5031825;28;20657;-67
2023/04/27 06:52:41;;;;;;;20.47;3.60;;;;;;;13.82;50.85;99324.72;5031168;28;20730;-66
2023/04/27 06:55:08;;;;;;;11.83;4.30;;;;;;;14.15;49.15;99325.19;5028451;28;20201;-69
2023/04/27 06:57:35;;;;;;;6.67;3.20;;;;;;;14.00;49.96;99330.06;5027986;28;20193;-66
2023/04/27 07:00:02;;;;;;;6.00;2.80;;;;;;;13.94;49.32;99322.94;5021201;28;20284;-65
2023/04/27 07:02:29;;;;;;;15.87;3.40;;;;;;;14.14;49.57;99323.53;5009732;28;20202;-66
2023/04/27 07:04:56;;;;;;;7.10;3.07;;;;;;;14.17;48.92;99331.09;5009763;28;20198;-68
2023/04/27 07:07:24;;;;;;;7.17;3.37;;;;;;;14.19;48.40;99325.53;5010890;28;20221;-66
2023/04/27 07:09:51;;;;;;;12.73;3.23;;;;;;;14.18;48.97;99329.25;5011630;28;20202;-65
2023/04/27 07:12:18;;;;;;;7.50;2.93;;;;;;;14.22;49.01;99325.94;5018197;28;20193;-66
2023/04/27 07:14:44;;;;;;;6.97;2.83;;;;;;;14.17;48.84;99328.44;5031319;28;20255;-65
2023/04/27 07:17:11;;;;;;;6.70;2.73;;;;;;;14.16;48.99;99328.63;5020977;28;20283;-65
2023/04/27 07:19:37;;;;;;;5.03;2.80;;;;;;;14.35;48.36;99324.97;5011822;28;20287;-66
2023/04/27 07:22:04;;;;;;;40.87;5.13;;;;;;;14.57;48.42;99332.28;5011513;28;20193;-67
2023/04/27 07:24:32;;;;;;;31.20;4.20;;;;;;;14.71;47.46;99331.06;5011346;28;20190;-65
2023/04/27 07:27:01;;;;;;;27.93;4.43;;;;;;;14.95;48.39;99322.09;5011435;28;20287;-67
2023/04/27 07:29:29;;;;;;;13.13;3.07;;;;;;;15.14;47.82;99315.63;5011702;28;20725;-66
2023/04/27 07:31:55;;;;;;;9.30;3.37;;;;;;;15.30;45.64;99324.84;5011784;28;20194;-66
2023/04/27 07:34:22;;;;;;;10.83;3.50;;;;;;;15.42;45.48;99334.56;5011390;28;20221;-65
2023/04/27 07:36:49;;;;;;;28.50;4.47;;;;;;;15.45;45.64;99328.72;5010834;28;20194;-66
2023/04/27 07:39:16;;;;;;;4.30;2.50;;;;;;;15.69;44.42;99334.94;5011373;28;20252;-74
2023/04/27 07:41:44;;;;;;;24.40;3.80;;;;;;;15.93;43.96;99335.75;5011022;28;20190;-66
2023/04/27 07:44:11;;;;;;;16.07;2.50;;;;;;;15.92;42.73;99331.44;5010770;28;20285;-67
2023/04/27 07:46:37;;;;;;;20.53;3.70;;;;;;;16.07;42.99;99326.41;5014685;28;20198;-68
2023/04/27 07:49:04;;;;;;;3.10;2.50;;;;;;;16.11;41.89;99339.09;5014535;28;20221;-67
2023/04/27 07:51:33;;;;;;;235.93;18.50;;;;;;;16.20;41.45;99326.97;5015338;28;20284;-66
2023/04/27 07:54:01;;;;;;;60.80;6.47;;;;;;;16.42;42.06;99333.38;5015213;28;20190;-66
2023/04/27 07:56:27;;;;;;;13.83;3.40;;;;;;;16.44;40.74;99335.78;5014855;28;20245;-67
2023/04/27 07:58:55;;;;;;;14.97;2.60;;;;;;;16.65;39.77;99327.94;5015211;28;20225;-67
2023/04/27 08:01:22;;;;;;;6.20;2.40;;;;;;;16.48;40.87;99329.72;5014803;28;20661;-68
2023/04/27 08:03:49;;;;;;;7.57;3.07;;;;;;;16.36;40.69;99336.13;5014153;28;20193;-69
2023/04/27 08:06:16;;;;;;;23.60;4.13;;;;;;;16.80;40.82;99332.75;5014293;28;20606;-68
2023/04/27 08:08:42;;;;;;;25.77;3.80;;;;;;;17.27;40.05;99332.28;5026698;28;20217;-65
2023/04/27 08:11:09;;;;;;;11.07;3.40;;;;;;;17.06;38.97;99337.56;5026701;28;20259;-68
2023/04/27 08:13:36;;;;;;;7.33;2.37;;;;;;;17.15;39.36;99322.69;5030133;28;20203;-66
2023/04/27 08:16:05;;;;;;;26.57;3.13;;;;;;;17.39;38.97;99318.81;5030594;28;20190;-68
2023/04/27 08:18:34;;;;;;;5.97;2.60;;;;;;;17.48;38.39;99317.38;5033662;28;20255;-67
2023/04/27 08:21:01;;;;;;;52.80;7.33;;;;;;;17.81;38.68;99315.44;5033912;28;20239;-66
2023/04/27 08:23:28;;;;;;;40.70;5.07;;;;;;;18.33;38.13;99305.94;5031892;28;20197;-64
2023/04/27 08:25:55;;;;;;;10.00;5.03;;;;;;;19.07;44.09;99299.00;5033295;28;20247;-70
2023/04/27 08:28:22;;;;;;;3.40;2.40;;;;;;;19.35;41.02;99290.63;5032366;28;20241;-67
2023/04/27 08:30:48;;;;;;;6.73;2.20;;;;;;;19.63;37.36;99293.84;5032730;28;20201;-65
2023/04/27 08:33:16;;;;;;;15.57;4.10;;;;;;;19.85;35.11;99296.41;5032901;28;20194;-67
2023/04/27 08:35:43;;;;;;;9.43;3.07;;;;;;;19.63;34.58;99298.41;5033136;28;20669;-64
2023/04/27 08:38:10;;;;;;;4.33;2.63;;;;;;;19.87;37.10;99283.47;5032705;28;20232;-69
2023/04/27 08:40:42;;;;;;;9.83;2.67;;;;;;;20.14;38.35;99279.59;5033715;28;20227;-65
2023/04/27 08:43:09;;;;;;;5.20;2.53;;;;;;;20.70;36.59;99277.09;5027827;28;20599;-65
2023/04/27 08:45:36;;;;;;;9.13;2.60;;;;;;;20.11;33.92;99276.63;5020216;28;20654;-65
2023/04/27 08:48:03;;;;;;;2.53;1.87;;;;;;;20.44;35.74;99273.50;5024744;28;20222;-65
2023/04/27 08:50:31;;;;;;;3.80;2.53;;;;;;;20.33;33.49;99278.06;5028269;28;20198;-64
2023/04/27 08:52:58;;;;;;;11.97;5.20;;;;;;;20.31;34.17;99274.00;5032915;28;20193;-66
2023/04/27 08:55:24;;;;;;;3.10;2.70;;;;;;;20.72;32.43;99273.06;5032915;28;20201;-65
2023/04/27 08:57:55;;;;;;;18.63;3.13;;;;;;;20.55;32.48;99267.09;5032548;28;20633;-65
2023/04/27 09:00:23;;;;;;;13.07;3.37;;;;;;;20.71;34.86;99262.53;5028084;28;20281;-65
2023/04/27 09:02:50;;;;;;;27.33;5.33;;;;;;;20.94;34.89;99270.16;5031977;28;20316;-64
2023/04/27 09:05:18;;;;;;;3.77;2.20;;;;;;;21.18;31.90;99263.97;5031014;28;20786;-65
2023/04/27 09:07:59;;;;;;;7.97;2.77;;;;;;;21.39;31.86;99262.88;5032250;28;20788;-64
2023/04/27 09:10:27;;;;;;;5.33;2.70;;;;;;;21.61;32.78;99262.59;5029445;28;20204;-69
2023/04/27 09:12:59;;;;;;;5.63;2.17;;;;;;;22.13;34.34;99258.41;5032069;28;20294;-64
2023/04/27 09:15:27;;;;;;;15.63;2.90;;;;;;;22.44;31.63;99265.31;5030675;28;20194;-64
2023/04/27 09:17:57;;;;;;;11.50;2.83;;;;;;;22.05;29.08;99272.50;5032542;28;20217;-64
2023/04/27 09:20:25;;;;;;;18.87;2.97;;;;;;;21.65;32.73;99259.06;5032651;28;20185;-64
2023/04/27 09:22:56;;;;;;;7.17;2.30;;;;;;;22.07;31.36;99264.94;5031685;28;20197;-65
2023/04/27 09:25:25;;;;;;;4.20;2.20;;;;;;;22.08;29.67;99263.84;5027360;28;20261;-69
2023/04/27 09:27:52;;;;;;;3.57;2.27;;;;;;;21.77;29.74;99256.09;5022661;28;20218;-67
2023/04/27 09:30:19;;;;;;;6.90;2.93;;;;;;;21.50;30.32;99250.16;5026956;28;20252;-68
2023/04/27 09:32:52;;;;;;;9.17;3.23;;;;;;;21.87;31.40;99256.88;5028338;28;20189;-68
2023/04/27 09:35:22;;;;;;;4.90;2.50;;;;;;;21.79;30.33;99246.63;5025717;28;20748;-68
2023/04/27 09:37:50;;;;;;;4.97;2.40;;;;;;;21.92;30.22;99245.25;5025257;28;20194;-68
2023/04/27 09:40:18;;;;;;;3.63;2.37;;;;;;;21.73;29.44;99250.44;5033041;28;20196;-67
2023/04/27 09:42:46;;;;;;;2.67;2.47;;;;;;;21.48;29.95;99242.31;5031311;28;20269;-68
2023/04/27 09:45:14;;;;;;;3.43;2.40;;;;;;;21.27;30.50;99240.72;5029385;28;20277;-68
2023/04/27 09:47:41;;;;;;;6.80;3.23;;;;;;;21.26;31.00;99239.09;5032506;28;20193;-68
2023/04/27 09:50:09;;;;;;;11.27;3.70;;;;;;;21.51;30.91;99241.78;5032301;28;20194;-67
2023/04/27 09:52:35;;;;;;;7.73;2.63;;;;;;;21.92;31.38;99235.22;5027400;28;20263;-67
2023/04/27 09:55:05;;;;;;;4.27;2.30;;;;;;;22.12;32.60;99240.56;5032326;28;20263;-66
2023/04/27 09:57:37;;;;;;;5.90;2.33;;;;;;;22.57;31.34;99244.97;5032530;28;20197;-67
2023/04/27 10:00:19;;;;;;;2.87;2.20;;;;;;;22.62;29.91;99243.06;5031888;28;20193;-68
2023/04/27 10:03:01;;;;;;;5.17;2.70;;;;;;;22.15;29.77;99244.59;5022376;28;20190;-67
2023/04/27 10:05:40;;;;;;;7.10;2.10;;;;;;;21.49;29.51;99243.13;5031447;28;20177;-68
2023/04/27 10:08:07;;;;;;;4.63;2.37;;;;;;;20.71;30.17;99238.22;5030882;28;20652;-67
2023/04/27 10:10:42;;;;;;;8.10;2.83;;;;;;;20.63;31.22;99234.19;5031851;28;20182;-67
2023/04/27 10:13:21;;;;;;;3.43;2.27;;;;;;;20.46;30.43;99231.69;5020330;28;20225;-68
2023/04/27 10:15:50;;;;;;;4.63;2.73;;;;;;;20.49;30.95;99230.34;5031185;28;20571;-67
2023/04/27 10:18:26;;;;;;;18.83;3.23;;;;;;;20.05;32.57;99245.28;5031007;28;20208;-68
2023/04/27 10:20:53;;;;;;;11.57;2.30;;;;;;;19.72;33.15;99237.53;5029208;28;20275;-68
2023/04/27 10:23:24;;;;;;;55.20;6.90;;;;;;;19.80;32.49;99242.44;5026995;28;20249;-71
2023/04/27 10:25:51;;;;;;;4.00;2.10;;;;;;;19.83;35.80;99231.13;5025644;28;20205;-70
2023/04/27 10:28:19;;;;;;;8.33;2.23;;;;;;;19.94;32.58;99230.13;5030446;28;20264;-68
2023/04/27 10:30:47;;;;;;;7.07;2.90;;;;;;;19.68;34.23;99225.66;5031694;28;20276;-67
2023/04/27 10:33:19;;;;;;;8.90;3.07;;;;;;;18.94;36.44;99219.47;5029831;28;20198;-67
2023/04/27 10:35:54;;;;;;;9.07;3.00;;;;;;;18.83;37.71;99233.88;5031619;28;20244;-69
2023/04/27 10:38:22;;;;;;;51.93;6.77;;;;;;;19.28;39.55;99225.41;5025698;28;20193;-67
2023/04/27 10:40:55;;;;;;;14.90;3.20;;;;;;;19.66;37.93;99246.69;5031123;28;20288;-67
2023/04/27 10:43:25;;;;;;;17.97;3.30;;;;;;;19.89;36.65;99240.91;5025714;28;20239;-68
2023/04/27 10:45:52;;;;;;;5.40;2.87;;;;;;;20.13;35.54;99242.09;5023804;28;20192;-67
2023/04/27 10:48:21;;;;;;;5.00;2.83;;;;;;;20.42;33.87;99244.09;5029470;28;20276;-73
2023/04/27 10:50:50;;;;;;;8.23;3.00;;;;;;;20.49;35.76;99239.25;5030116;28;20189;-68
2023/04/27 10:53:17;;;;;;;5.67;2.23;;;;;;;20.74;32.89;99252.00;5026687;28;20185;-68
2023/04/27 10:55:44;;;;;;;2.80;2.30;;;;;;;20.93;33.29;99250.44;5030072;28;20320;-67
2023/04/27 10:58:11;;;;;;;62.40;6.63;;;;;;;20.99;33.00;99227.75;5031282;28;20201;-67
2023/04/27 11:00:41;;;;;;;4.20;2.13;;;;;;;21.26;32.67;99252.63;5023549;28;20198;-68
2023/04/27 11:03:13;;;;;;;7.70;2.97;;;;;;;21.10;31.08;99251.00;5026088;28;20190;-67
2023/04/27 11:05:43;;;;;;;117.23;9.77;;;;;;;21.07;34.81;99245.31;5019383;28;20500;-67
2023/04/27 11:08:11;;;;;;;8.77;2.77;;;;;;;21.11;35.05;99247.19;5027277;28;20263;-74
2023/04/27 11:10:43;;;;;;;13.27;3.13;;;;;;;21.22;34.65;99248.84;5025719;28;20190;-67
2023/04/27 11:13:11;;;;;;;48.87;6.37;;;;;;;20.96;31.37;99265.28;5010656;28;20260;-70
2023/04/27 11:15:48;;;;;;;31.97;4.20;;;;;;;21.03;32.94;99255.84;5018245;28;20201;-68
2023/04/27 11:18:16;;;;;;;4.93;2.60;;;;;;;21.11;33.77;99249.91;5014277;28;20189;-69
2023/04/27 11:20:48;;;;;;;8.80;2.87;;;;;;;21.22;32.84;99254.22;5024510;28;20288;-66
2023/04/27 11:23:23;;;;;;;9.97;3.00;;;;;;;21.35;34.19;99242.09;5024789;28;20194;-67
2023/04/27 11:25:51;;;;;;;6.70;3.30;;;;;;;21.35;33.68;99261.78;5026184;28;20200;-69
2023/04/27 11:28:18;;;;;;;21.30;4.20;;;;;;;21.63;33.68;99249.59;5026367;28;20240;-67
2023/04/27 11:30:45;;;;;;;14.47;3.10;;;;;;;21.75;32.84;99258.25;5027161;28;20731;-68
2023/04/27 11:33:11;;;;;;;58.93;6.20;;;;;;;21.80;31.10;99266.38;5024529;28;20256;-66